Russell, KS

05:27 CDT le 02 octobre 2014 (GMT -0500)
Hill City Municipal | Change Station
CLOSE
Current Station
Aéroport
Location: Hill City,
Altitude: 2224 ft
Stations météo à proximité

Alt. 2224 ft 39.37 °N, 99.83 °W | Updated 34 minutes ago

Couvert
Couvert
54 ° F
Paraît 54 ° F
N
21
Vent Variable Vent de Nord
Gusts 29 mph

Aujourd'hui
Haut(e) -- | Bas -- ° F
--% Risque de précip.
Hier
Haut(e) -- | Bas -- ° F
Precip. -- pouce
7:32 AM 7:16 PM
Premier quartier, 57% visible
Pression 29.84 pouce
Visibilité 6.0 Miles terrestres
Nuages Nuageux 7000 ft
Couvert 8500 ft
Point de rosée 51 ° F
Humidité 90%
Précipitations 0.06 pouce
Profondeur de la couche neigeuse Non disponible.
UV 0 sur 12
Pollen .50 sur 12
Qualité de l'air Non disponible.
Flu Activity Non disponible.
METAR KHLC 020953Z AUTO 35018G25KT 6SM RA BR BKN070 OVC085 12/11 A2989 RMK AO2 PK WND 36033/0856 LTG DSNT SE AND S RAB17 SLP104 P0006 T01220106

More Conditions Fewer Conditions

Pression 29.84 pouce
Visibilité 6.0 Miles terrestres
Nuages Nuageux 7000 ft
Couvert 8500 ft
Point de rosée 51 ° F
Humidité 90%
Précipitations 0.06 pouce
Profondeur de la couche neigeuse Non disponible.
UV 0 sur 12
Pollen .50 sur 12
Qualité de l'air Non disponible.
Flu Activity Non disponible.
METAR KHLC 020953Z AUTO 35018G25KT 6SM RA BR BKN070 OVC085 12/11 A2989 RMK AO2 PK WND 36033/0856 LTG DSNT SE AND S RAB17 SLP104 P0006 T01220106

More Conditions Fewer Conditions

10-Day Weather Forecast

Almanac

Astronomie

Oct. 02, 2014 Lever Coucher
Temps réel 07:32 CDT 19:16 CDT
Crépuscule civil 07:05 CDT 19:43 CDT
Crépuscule nautique 06:34 CDT 20:13 CDT
Crépuscule astronomique 06:03 CDT 20:44 CDT
Lune 15:21 CDT 00:53 CDT
Durée de lumière visible 12h 37m
Longueur du jour
11h 44m
Tomorrow will be 2m 30s shorter.
Premier quartier, 57% of the Moon is Illuminated
Aujourd'hui
Premier quartier
Oct 8
Pleine lune
Oct 15
Dernier quartier
Oct 23
Nouveau
Oct 30
Premier quartier

Extrêmes aujourd'hui

State Highs State Lows

Community

WunderPhotos

Upload Photos

1,758,209 Photos téléchargées !

WunderBlogs® & News

Nearby

Épaisseur de neige

Station Depth Altitude
Pas de nouvelles chutes de neige

Activité sismique

Ville Distance Mag. Time & Date
Harper, Kansas 126 Miles terrestres 3.3 01:11 CDT
2014-10-01
Harper, Kansas 123 Miles terrestres 2.9 13:49 CDT
2014-09-30
Harper, Kansas 123 Miles terrestres 3.1 10:24 CDT
2014-09-30
Harper, Kansas 124 Miles terrestres 3.8 09:55 CDT
2014-09-30
Minimum magnitude displayed is 2.5.

Températures des eaux côtières

Lieu Température
Aucun rapport de station

Stations météo à proximité